createdAt,value
2018-08-03T00:00:03.838Z,88.60
2018-08-03T00:02:32.528Z,88.30
2018-08-03T00:05:01.159Z,88.30
2018-08-03T00:07:29.900Z,88.50
2018-08-03T00:09:58.662Z,88.70
2018-08-03T00:12:27.245Z,89.10
2018-08-03T00:14:55.896Z,88.80
2018-08-03T00:17:24.577Z,88.90
2018-08-03T00:19:53.203Z,89.10
2018-08-03T00:22:21.814Z,88.90
2018-08-03T00:24:50.461Z,88.80
2018-08-03T00:27:19.193Z,89.10
2018-08-03T00:29:47.788Z,89.30
2018-08-03T00:32:16.426Z,89.60
2018-08-03T00:34:45.016Z,89.70
2018-08-03T00:37:13.661Z,89.40
2018-08-03T00:39:42.352Z,89.40
2018-08-03T00:42:10.985Z,89.30
2018-08-03T00:44:39.550Z,89.50
2018-08-03T00:47:08.216Z,89.50
2018-08-03T00:49:36.874Z,89.50
2018-08-03T00:52:05.445Z,89.40
2018-08-03T00:54:34.209Z,89.50
2018-08-03T00:57:02.821Z,89.40
2018-08-03T00:59:31.530Z,89.50
2018-08-03T01:02:00.137Z,89.60
2018-08-03T01:04:28.762Z,89.70
2018-08-03T01:06:57.382Z,89.60
2018-08-03T01:09:27.079Z,89.60
2018-08-03T01:11:55.730Z,89.40
2018-08-03T01:14:24.311Z,89.40
2018-08-03T01:16:52.919Z,89.30
2018-08-03T01:19:21.606Z,89.40
2018-08-03T01:21:50.300Z,89.80
2018-08-03T01:24:18.900Z,89.90
2018-08-03T01:26:47.524Z,89.90
2018-08-03T01:29:16.086Z,90.10
2018-08-03T01:31:44.806Z,89.90
2018-08-03T01:34:13.396Z,90.20
2018-08-03T01:36:41.995Z,90.30
2018-08-03T01:39:10.512Z,90.50
2018-08-03T01:41:39.062Z,90.80
2018-08-03T01:44:07.669Z,90.50
2018-08-03T01:46:36.215Z,90.60
2018-08-03T01:49:04.809Z,90.50
2018-08-03T01:51:33.495Z,90.80
2018-08-03T01:54:02.282Z,90.90
2018-08-03T01:56:30.997Z,91.30
2018-08-03T01:58:59.631Z,91.20
2018-08-03T02:01:28.157Z,91.60
2018-08-03T02:03:56.737Z,91.60
2018-08-03T02:06:27.937Z,91.70
2018-08-03T02:08:56.495Z,91.40
2018-08-03T02:11:25.124Z,91.40
2018-08-03T02:13:53.732Z,91.30
2018-08-03T02:16:22.408Z,91.20
2018-08-03T02:18:51.048Z,91.20
2018-08-03T02:21:19.776Z,91.10
2018-08-03T02:23:48.367Z,91.00
2018-08-03T02:26:17.022Z,91.20
2018-08-03T02:28:45.626Z,91.30
2018-08-03T02:31:14.256Z,91.30
2018-08-03T02:33:42.986Z,91.60
2018-08-03T02:36:11.569Z,91.70
2018-08-03T02:38:40.181Z,91.70
2018-08-03T02:41:08.804Z,91.90
2018-08-03T02:43:37.487Z,91.90
2018-08-03T02:46:06.333Z,91.90
2018-08-03T02:48:34.916Z,91.90
2018-08-03T02:51:03.513Z,92.00
2018-08-03T02:53:34.409Z,92.00
2018-08-03T02:56:02.999Z,92.00
2018-08-03T02:58:31.679Z,92.10
2018-08-03T03:01:00.261Z,92.10
2018-08-03T03:03:28.925Z,92.10
2018-08-03T03:05:57.527Z,92.30
2018-08-03T03:08:26.299Z,92.30
2018-08-03T03:10:54.901Z,92.40
2018-08-03T03:13:23.626Z,92.40
2018-08-03T03:15:52.236Z,92.40
2018-08-03T03:18:20.837Z,92.70
2018-08-03T03:20:49.525Z,92.50
2018-08-03T03:23:18.207Z,92.70
2018-08-03T03:25:46.804Z,92.40
2018-08-03T03:28:15.446Z,92.70
2018-08-03T03:30:44.091Z,92.80
2018-08-03T03:33:12.708Z,92.70
2018-08-03T03:35:41.415Z,92.50
2018-08-03T03:38:10.196Z,92.60
2018-08-03T03:40:38.843Z,92.70
2018-08-03T03:43:07.443Z,92.70
2018-08-03T03:45:36.086Z,92.80
2018-08-03T03:48:04.722Z,92.90
2018-08-03T03:50:33.431Z,92.90
2018-08-03T03:53:02.103Z,92.50
2018-08-03T03:55:30.709Z,92.40
2018-08-03T03:57:59.317Z,92.70
2018-08-03T04:00:27.992Z,92.50
2018-08-03T04:02:56.636Z,92.60
2018-08-03T04:05:25.377Z,92.50
2018-08-03T04:07:54.051Z,92.00
2018-08-03T04:10:22.716Z,92.10
2018-08-03T04:12:51.301Z,92.30
2018-08-03T04:15:19.951Z,92.30
2018-08-03T04:17:48.584Z,92.20
2018-08-03T04:20:17.219Z,92.00
2018-08-03T04:22:45.863Z,92.20
2018-08-03T04:25:14.511Z,92.50
2018-08-03T04:27:43.195Z,92.80
2018-08-03T04:30:11.880Z,93.00
2018-08-03T04:32:40.488Z,92.90
2018-08-03T04:35:09.120Z,93.00
2018-08-03T04:37:37.763Z,93.10
2018-08-03T04:40:06.542Z,93.20
2018-08-03T04:42:35.292Z,93.10
2018-08-03T04:45:04.032Z,92.90
2018-08-03T04:47:32.644Z,93.00
2018-08-03T04:50:01.328Z,93.10
2018-08-03T04:52:29.972Z,93.10
2018-08-03T04:54:58.686Z,93.20
2018-08-03T04:57:27.308Z,93.20
2018-08-03T04:59:55.940Z,93.20
2018-08-03T05:02:24.546Z,93.00
2018-08-03T05:04:53.157Z,92.60
2018-08-03T05:07:21.759Z,92.50
2018-08-03T05:09:50.306Z,92.30
2018-08-03T05:12:18.864Z,92.00
2018-08-03T05:14:47.436Z,91.90
2018-08-03T05:17:16.052Z,91.40
2018-08-03T05:19:51.652Z,91.10
2018-08-03T05:22:20.267Z,91.10
2018-08-03T05:24:48.922Z,90.90
2018-08-03T05:27:17.588Z,90.90
2018-08-03T05:29:46.195Z,91.00
2018-08-03T05:32:14.828Z,90.90
2018-08-03T05:34:43.501Z,91.00
2018-08-03T05:37:12.283Z,90.80
2018-08-03T05:39:40.871Z,91.00
2018-08-03T05:42:09.471Z,90.80
2018-08-03T05:44:38.045Z,90.90
2018-08-03T05:47:06.618Z,91.00
2018-08-03T05:49:35.271Z,90.70
2018-08-03T05:52:03.987Z,90.60
2018-08-03T05:54:32.632Z,90.70
2018-08-03T05:57:01.256Z,90.20
2018-08-03T05:59:30.125Z,90.10
2018-08-03T06:01:58.716Z,89.60
2018-08-03T06:04:27.309Z,89.40
2018-08-03T06:06:55.970Z,89.30
2018-08-03T06:09:24.572Z,89.10
2018-08-03T06:11:53.146Z,88.40
2018-08-03T06:14:21.756Z,88.20
2018-08-03T06:16:50.401Z,87.40
2018-08-03T06:19:18.984Z,87.40
2018-08-03T06:21:47.671Z,87.80
2018-08-03T06:24:16.396Z,87.10
2018-08-03T06:26:44.981Z,86.60
2018-08-03T06:29:13.661Z,86.50
2018-08-03T06:31:42.345Z,86.00
2018-08-03T06:37:03.784Z,86.20
2018-08-03T06:39:32.380Z,86.40
2018-08-03T06:42:01.249Z,85.70
2018-08-03T06:44:30.162Z,85.30
2018-08-03T06:46:58.829Z,85.00
2018-08-03T06:49:27.511Z,85.00
2018-08-03T06:51:56.190Z,84.90
2018-08-03T06:54:24.890Z,84.80
2018-08-03T06:56:53.521Z,84.20
2018-08-03T06:59:22.273Z,84.00
2018-08-03T07:01:50.922Z,83.90
2018-08-03T07:04:19.724Z,84.00
2018-08-03T07:06:54.133Z,84.00
2018-08-03T07:09:22.829Z,83.90
2018-08-03T07:11:51.444Z,83.10
2018-08-03T07:14:20.065Z,83.10
2018-08-03T07:16:48.756Z,80.80
2018-08-03T07:19:17.352Z,80.90
2018-08-03T07:21:51.081Z,80.00
2018-08-03T07:24:19.761Z,79.30
2018-08-03T07:26:48.407Z,79.20
2018-08-03T07:29:17.594Z,78.50
2018-08-03T07:31:46.240Z,78.70
2018-08-03T07:34:14.873Z,77.80
2018-08-03T07:36:43.466Z,78.20
2018-08-03T07:39:12.652Z,78.00
2018-08-03T07:41:41.344Z,77.10
2018-08-03T07:44:09.962Z,76.40
2018-08-03T07:46:38.561Z,75.30
2018-08-03T07:49:07.245Z,74.40
2018-08-03T07:51:35.813Z,74.00
2018-08-03T07:54:04.416Z,73.10
2018-08-03T07:56:33.025Z,73.10
2018-08-03T07:59:01.641Z,73.80
2018-08-03T08:01:30.279Z,71.70
2018-08-03T08:03:58.856Z,71.00
2018-08-03T08:06:27.509Z,70.90
2018-08-03T08:08:56.149Z,69.40
2018-08-03T08:11:24.707Z,70.30
2018-08-03T08:13:53.270Z,69.60
2018-08-03T08:16:21.811Z,70.50
2018-08-03T08:18:50.385Z,70.10
2018-08-03T08:21:18.952Z,69.90
2018-08-03T08:23:47.628Z,69.40
2018-08-03T08:26:16.351Z,68.70
2018-08-03T08:31:50.468Z,67.30
2018-08-03T08:34:19.034Z,67.10
2018-08-03T08:36:47.576Z,68.20
2018-08-03T08:39:16.171Z,65.90
2018-08-03T08:41:44.767Z,65.80
2018-08-03T08:44:14.003Z,66.30
2018-08-03T08:46:42.889Z,65.00
2018-08-03T08:49:11.436Z,65.00
2018-08-03T08:51:39.987Z,64.30
2018-08-03T08:54:08.542Z,63.60
2018-08-03T08:56:37.109Z,63.80
2018-08-03T08:59:05.642Z,63.10
2018-08-03T09:01:34.303Z,63.00
2018-08-03T09:04:02.916Z,63.50
2018-08-03T09:06:31.502Z,62.30
2018-08-03T09:09:00.031Z,63.50
2018-08-03T09:11:28.719Z,62.40
2018-08-03T09:13:59.591Z,60.90
2018-08-03T09:16:28.122Z,60.00
2018-08-03T09:18:56.667Z,61.10
2018-08-03T09:21:25.271Z,63.00
2018-08-03T09:23:53.840Z,62.10
2018-08-03T09:26:22.447Z,60.50
2018-08-03T09:28:51.053Z,59.60
2018-08-03T09:31:19.637Z,60.60
2018-08-03T09:33:54.412Z,60.20
2018-08-03T09:36:23.069Z,59.90
2018-08-03T09:38:51.612Z,61.10
2018-08-03T09:41:20.210Z,61.00
2018-08-03T09:43:50.162Z,59.40
2018-08-03T09:46:18.710Z,58.90
2018-08-03T09:48:47.386Z,59.90
2018-08-03T09:51:16.248Z,59.20
2018-08-03T09:53:44.996Z,59.90
2018-08-03T09:56:13.610Z,59.70
2018-08-03T09:58:42.296Z,59.80
2018-08-03T10:01:12.094Z,57.90
2018-08-03T10:03:58.516Z,58.90
2018-08-03T10:06:27.099Z,56.80
2018-08-03T10:08:55.845Z,58.40
2018-08-03T10:11:25.039Z,57.00
2018-08-03T10:13:53.742Z,56.60
2018-08-03T10:16:22.333Z,56.90
2018-08-03T10:18:51.079Z,57.30
2018-08-03T10:21:19.716Z,56.50
2018-08-03T10:23:48.327Z,56.20
2018-08-03T10:26:16.963Z,56.00
2018-08-03T10:28:45.665Z,54.30
2018-08-03T10:31:14.259Z,56.50
2018-08-03T10:33:43.067Z,56.90
2018-08-03T10:36:11.612Z,55.60
2018-08-03T10:38:40.227Z,55.30
2018-08-03T10:41:08.910Z,53.60
2018-08-03T10:43:37.730Z,53.70
2018-08-03T10:46:06.267Z,53.30
2018-08-03T10:48:34.929Z,54.90
2018-08-03T10:51:03.636Z,54.30
2018-08-03T10:53:32.322Z,54.60
2018-08-03T10:56:00.986Z,52.60
2018-08-03T10:58:29.576Z,52.50
2018-08-03T11:00:58.200Z,51.90
2018-08-03T11:03:26.914Z,52.50
2018-08-03T11:05:55.479Z,51.00
2018-08-03T11:08:25.100Z,51.70
2018-08-03T11:10:53.960Z,52.50
2018-08-03T11:13:23.775Z,50.70
2018-08-03T11:15:52.749Z,52.60
2018-08-03T11:18:21.592Z,51.30
2018-08-03T11:20:50.131Z,51.60
2018-08-03T11:23:18.954Z,52.80
2018-08-03T11:25:47.717Z,51.50
2018-08-03T11:28:16.567Z,51.40
2018-08-03T11:30:45.243Z,50.00
2018-08-03T11:33:14.176Z,51.80
2018-08-03T11:35:43.081Z,51.30
2018-08-03T11:38:11.824Z,51.30
2018-08-03T11:40:41.985Z,50.80
2018-08-03T11:43:10.581Z,51.20
2018-08-03T11:45:39.230Z,51.90
2018-08-03T11:48:07.827Z,49.10
2018-08-03T11:50:36.463Z,50.20
2018-08-03T11:53:05.147Z,51.20
2018-08-03T11:55:33.709Z,50.00
2018-08-03T11:58:02.407Z,49.20
2018-08-03T12:00:31.061Z,49.00
2018-08-03T12:02:59.776Z,50.20
2018-08-03T12:05:28.376Z,49.70
2018-08-03T12:07:58.300Z,49.20
2018-08-03T12:10:26.955Z,50.10
2018-08-03T12:12:55.581Z,48.30
2018-08-03T12:15:24.187Z,49.40
2018-08-03T12:17:52.765Z,49.30
2018-08-03T12:20:21.252Z,49.00
2018-08-03T12:22:50.700Z,48.00
2018-08-03T12:25:19.279Z,49.00
2018-08-03T12:27:47.870Z,48.80
2018-08-03T12:30:16.429Z,48.40
2018-08-03T12:32:45.002Z,46.60
2018-08-03T12:35:13.639Z,47.10
2018-08-03T12:37:43.267Z,47.20
2018-08-03T12:40:11.807Z,48.00
2018-08-03T12:42:40.360Z,48.00
2018-08-03T12:45:08.911Z,49.00
2018-08-03T12:47:37.521Z,47.40
2018-08-03T12:50:06.085Z,47.00
2018-08-03T12:52:34.649Z,48.10
2018-08-03T12:55:03.258Z,49.50
2018-08-03T12:57:31.865Z,48.20
2018-08-03T13:00:00.428Z,48.00
2018-08-03T13:02:29.000Z,47.30
2018-08-03T13:04:57.615Z,46.00
2018-08-03T13:07:26.232Z,46.90
2018-08-03T13:09:54.773Z,46.40
2018-08-03T13:12:23.400Z,46.20
2018-08-03T13:14:52.020Z,46.10
2018-08-03T13:17:20.595Z,46.20
2018-08-03T13:19:49.225Z,45.70
2018-08-03T13:22:20.782Z,45.00
2018-08-03T13:24:49.774Z,44.50
2018-08-03T13:27:18.946Z,44.40
2018-08-03T13:29:47.467Z,43.60
2018-08-03T13:32:16.095Z,43.20
2018-08-03T13:34:44.775Z,42.90
2018-08-03T13:37:13.746Z,42.90
2018-08-03T13:39:42.872Z,42.20
2018-08-03T13:42:11.819Z,41.20
2018-08-03T13:44:40.612Z,41.20
2018-08-03T13:47:12.935Z,42.20
2018-08-03T13:49:41.673Z,40.60
2018-08-03T13:52:10.756Z,40.60
2018-08-03T13:54:39.291Z,40.60
2018-08-03T13:57:07.852Z,39.70
2018-08-03T13:59:36.373Z,39.50
2018-08-03T14:02:18.215Z,39.50
2018-08-03T14:04:46.800Z,39.20
2018-08-03T14:07:15.348Z,39.90
2018-08-03T14:09:43.899Z,40.70
2018-08-03T14:12:12.469Z,39.80
2018-08-03T14:14:41.732Z,39.30
2018-08-03T14:17:11.101Z,39.30
2018-08-03T14:19:40.211Z,39.30
2018-08-03T14:22:09.112Z,39.70
2018-08-03T14:24:37.953Z,39.20
2018-08-03T14:27:08.580Z,40.10
2018-08-03T14:29:43.710Z,39.50
2018-08-03T14:32:13.470Z,40.00
2018-08-03T14:34:42.268Z,39.40
2018-08-03T14:37:11.375Z,39.80
2018-08-03T14:45:25.189Z,39.40
2018-08-03T14:47:53.738Z,40.40
2018-08-03T14:50:22.479Z,40.20
2018-08-03T14:52:51.204Z,40.20
2018-08-03T14:55:20.899Z,40.00
2018-08-03T14:57:50.739Z,39.90
2018-08-03T15:00:19.307Z,40.80
2018-08-03T15:02:47.828Z,40.10
2018-08-03T15:05:16.414Z,39.80
2018-08-03T15:07:45.020Z,39.60
2018-08-03T15:10:13.825Z,40.00
2018-08-03T15:12:42.436Z,40.80
2018-08-03T15:15:11.060Z,41.40
2018-08-03T15:17:39.654Z,41.00
2018-08-03T15:20:09.142Z,39.50
2018-08-03T15:22:37.693Z,41.30
2018-08-03T15:25:06.299Z,39.60
2018-08-03T15:27:34.889Z,39.90
2018-08-03T15:30:03.559Z,40.40
2018-08-03T15:32:32.158Z,40.10
2018-08-03T15:35:00.724Z,40.00
2018-08-03T15:37:29.260Z,39.30
2018-08-03T15:39:57.803Z,39.60
2018-08-03T15:42:26.351Z,39.20
2018-08-03T15:44:54.979Z,38.40
2018-08-03T15:47:23.529Z,39.30
2018-08-03T15:49:52.044Z,39.30
2018-08-03T15:52:20.571Z,38.60
2018-08-03T15:54:49.107Z,38.40
2018-08-03T15:57:17.627Z,39.70
2018-08-03T15:59:46.117Z,39.30
2018-08-03T16:02:14.693Z,39.90
2018-08-03T16:04:43.648Z,40.40
2018-08-03T16:07:12.255Z,39.00
2018-08-03T16:09:40.788Z,39.60
2018-08-03T16:12:09.377Z,38.80
2018-08-03T16:14:37.919Z,39.70
2018-08-03T16:17:06.656Z,39.00
2018-08-03T16:19:35.217Z,38.70
2018-08-03T16:22:03.993Z,39.60
2018-08-03T16:24:32.561Z,39.90
2018-08-03T16:27:01.355Z,40.80
2018-08-03T16:29:29.892Z,38.70
2018-08-03T16:31:58.447Z,40.70
2018-08-03T16:34:26.988Z,41.00
2018-08-03T16:36:55.562Z,41.00
2018-08-03T16:39:30.511Z,40.70
2018-08-03T16:41:59.249Z,40.60
2018-08-03T16:44:29.020Z,40.20
2018-08-03T16:46:57.756Z,40.00
2018-08-03T16:49:26.272Z,39.80
2018-08-03T16:51:54.927Z,40.80
2018-08-03T16:54:23.629Z,41.10
2018-08-03T16:56:52.259Z,41.30
2018-08-03T16:59:20.785Z,42.00
2018-08-03T17:01:49.347Z,41.70
2018-08-03T17:04:17.957Z,41.60
2018-08-03T17:06:46.544Z,41.00
2018-08-03T17:09:15.080Z,40.80
2018-08-03T17:11:43.895Z,41.80
2018-08-03T17:14:12.433Z,42.00
2018-08-03T17:16:40.948Z,41.00
2018-08-03T17:19:09.518Z,42.60
2018-08-03T17:21:38.135Z,41.70
2018-08-03T17:24:06.655Z,42.00
2018-08-03T17:26:35.211Z,41.10
2018-08-03T17:29:03.820Z,41.10
2018-08-03T17:31:32.364Z,42.40
2018-08-03T17:34:00.851Z,42.40
2018-08-03T17:36:29.411Z,41.80
2018-08-03T17:38:57.919Z,42.90
2018-08-03T17:41:26.511Z,43.10
2018-08-03T17:43:55.088Z,42.60
2018-08-03T17:46:23.640Z,42.60
2018-08-03T17:48:52.139Z,43.60
2018-08-03T17:51:20.677Z,42.90
2018-08-03T17:53:49.304Z,43.30
2018-08-03T17:56:17.795Z,44.40
2018-08-03T17:58:46.409Z,45.50
2018-08-03T18:01:15.066Z,44.90
2018-08-03T18:03:43.661Z,45.20
2018-08-03T18:06:12.183Z,45.90
2018-08-03T18:08:40.915Z,46.00
2018-08-03T18:11:09.551Z,46.80
2018-08-03T18:13:38.308Z,47.10
2018-08-03T18:16:07.057Z,47.60
2018-08-03T18:18:35.595Z,48.90
2018-08-03T18:21:04.096Z,48.80
2018-08-03T18:23:32.897Z,49.00
2018-08-03T18:26:01.448Z,48.80
2018-08-03T18:28:30.069Z,49.70
2018-08-03T18:30:58.637Z,51.00
2018-08-03T18:33:27.255Z,52.90
2018-08-03T18:35:55.888Z,53.30
2018-08-03T18:38:24.504Z,54.20
2018-08-03T18:40:53.116Z,55.30
2018-08-03T18:43:21.670Z,55.30
2018-08-03T18:45:50.255Z,55.80
2018-08-03T18:48:18.813Z,57.40
2018-08-03T18:50:47.407Z,57.70
2018-08-03T18:53:15.952Z,58.40
2018-08-03T18:55:44.563Z,59.10
2018-08-03T18:58:13.225Z,59.00
2018-08-03T19:00:41.744Z,59.80
2018-08-03T19:03:10.397Z,59.90
2018-08-03T19:05:38.948Z,60.10
2018-08-03T19:08:07.541Z,60.20
2018-08-03T19:10:36.153Z,60.00
2018-08-03T19:13:04.724Z,59.80
2018-08-03T19:15:33.352Z,60.60
2018-08-03T19:18:01.928Z,60.90
2018-08-03T19:20:30.452Z,62.40
2018-08-03T19:22:59.153Z,62.90
2018-08-03T19:25:27.781Z,62.80
2018-08-03T19:27:56.364Z,63.20
2018-08-03T19:30:25.218Z,64.00
2018-08-03T19:32:54.733Z,64.90
2018-08-03T19:35:33.394Z,65.20
2018-08-03T19:38:02.000Z,65.70
2018-08-03T19:40:31.578Z,65.80
2018-08-03T19:43:00.248Z,66.00
2018-08-03T19:45:28.821Z,66.50
2018-08-03T19:47:57.384Z,67.30
2018-08-03T19:50:25.972Z,67.70
2018-08-03T19:52:54.550Z,68.00
2018-08-03T19:55:23.136Z,68.00
2018-08-03T19:57:52.608Z,68.10
2018-08-03T20:00:21.172Z,68.40
2018-08-03T20:02:49.880Z,68.70
2018-08-03T20:05:18.482Z,68.80
2018-08-03T20:07:47.139Z,69.30
2018-08-03T20:10:15.744Z,69.40
2018-08-03T20:12:44.335Z,69.30
2018-08-03T20:15:12.976Z,69.90
2018-08-03T20:17:41.554Z,70.70
2018-08-03T20:20:10.195Z,71.00
2018-08-03T20:22:38.711Z,71.40
2018-08-03T20:25:07.372Z,70.90
2018-08-03T20:27:36.032Z,70.60
2018-08-03T20:30:05.608Z,70.90
2018-08-03T20:32:34.193Z,71.30
2018-08-03T20:35:02.868Z,72.00
2018-08-03T20:37:32.374Z,71.70
2018-08-03T20:40:01.672Z,72.10
2018-08-03T20:42:30.421Z,72.50
2018-08-03T20:44:59.054Z,72.80
2018-08-03T20:47:27.752Z,72.80
2018-08-03T20:49:57.141Z,73.00
2018-08-03T20:52:25.828Z,73.20
2018-08-03T20:54:54.504Z,73.40
2018-08-03T20:57:23.409Z,73.40
2018-08-03T20:59:52.049Z,73.60
2018-08-03T21:02:21.140Z,73.90
2018-08-03T21:04:50.055Z,73.70
2018-08-03T21:07:18.671Z,73.80
2018-08-03T21:09:48.160Z,74.10
2018-08-03T21:12:17.412Z,74.00
2018-08-03T21:14:46.623Z,74.00
2018-08-03T21:17:15.345Z,74.40
2018-08-03T21:19:44.021Z,74.50
2018-08-03T21:22:13.004Z,74.40
2018-08-03T21:24:41.919Z,74.50
2018-08-03T21:27:10.536Z,75.10
2018-08-03T21:29:39.166Z,75.50
2018-08-03T21:32:08.641Z,75.40
2018-08-03T21:34:37.258Z,75.30
2018-08-03T21:37:06.253Z,75.40
2018-08-03T21:39:34.977Z,75.30
2018-08-03T21:42:04.004Z,75.50
2018-08-03T21:44:33.003Z,75.90
2018-08-03T21:47:01.760Z,76.20
2018-08-03T21:49:30.415Z,76.50
2018-08-03T21:51:59.027Z,77.00
2018-08-03T21:54:27.701Z,77.20
2018-08-03T21:56:56.700Z,77.00
2018-08-03T21:59:25.979Z,77.00
2018-08-03T22:01:54.839Z,77.10
2018-08-03T22:04:23.940Z,77.70
2018-08-03T22:06:53.342Z,77.60
2018-08-03T22:09:23.203Z,77.70
2018-08-03T22:11:51.940Z,77.40
2018-08-03T22:14:21.019Z,77.40
2018-08-03T22:16:49.760Z,78.10
2018-08-03T22:19:19.082Z,78.50
2018-08-03T22:21:48.268Z,78.50
2018-08-03T22:24:16.879Z,78.40
2018-08-03T22:26:45.489Z,78.50
2018-08-03T22:29:14.139Z,78.70
2018-08-03T22:31:42.728Z,79.20
2018-08-03T22:34:11.339Z,79.40
2018-08-03T22:36:39.916Z,79.50
2018-08-03T22:39:09.217Z,79.40
2018-08-03T22:41:38.076Z,79.50
2018-08-03T22:44:06.772Z,79.60
2018-08-03T22:46:35.374Z,79.60
2018-08-03T22:49:03.968Z,79.60
2018-08-03T22:51:32.526Z,79.90
2018-08-03T22:54:01.086Z,79.90
2018-08-03T22:56:29.671Z,80.00
2018-08-03T22:58:58.255Z,80.30
2018-08-03T23:01:26.799Z,80.50
2018-08-03T23:03:55.408Z,80.60
2018-08-03T23:06:24.075Z,80.60
2018-08-03T23:08:52.724Z,80.50
2018-08-03T23:11:21.284Z,80.60
2018-08-03T23:13:49.959Z,80.80
2018-08-03T23:16:18.527Z,81.10
2018-08-03T23:18:47.144Z,81.30
2018-08-03T23:21:15.732Z,81.20
2018-08-03T23:23:44.326Z,81.50
2018-08-03T23:26:12.840Z,81.90
2018-08-03T23:28:41.531Z,81.90
2018-08-03T23:31:10.147Z,82.20
2018-08-03T23:33:38.784Z,81.90
2018-08-03T23:36:07.403Z,82.00
2018-08-03T23:38:36.096Z,82.00
2018-08-03T23:41:04.704Z,82.00
2018-08-03T23:43:33.358Z,82.20
2018-08-03T23:46:01.971Z,82.00
2018-08-03T23:48:30.548Z,82.20
2018-08-03T23:50:59.117Z,82.20
2018-08-03T23:53:27.836Z,82.70
2018-08-03T23:55:56.450Z,82.60
2018-08-03T23:58:25.192Z,82.70
